Time;durP1;ratioP1;P1;durP2;ratioP2;P2;SDS_P1;SDS_P2;PMS_P1;PMS_P2;Temp;Humidity;BMP_temperature;BMP_pressure;BME280_temperature;BME280_humidity;BME280_pressure;Samples;Min_cycle;Max_cycle;Signal;HPM_P1;HPM_P2
2023/08/08 00:02:58;;;;;;;5.10;2.90;;;;;;;15.90;85.40;99743.79;105942;1262;102534;-84
2023/08/08 00:05:43;;;;;;;3.90;1.80;;;;;;;15.88;85.20;99751.10;105830;1258;97885;-85
2023/08/08 00:08:29;;;;;;;6.00;2.30;;;;;;;15.87;85.08;99753.30;105803;1258;97943;-84
2023/08/08 00:11:14;;;;;;;5.70;2.80;;;;;;;15.84;84.66;99755.39;105847;1264;98000;-84
2023/08/08 00:14:00;;;;;;;5.40;3.20;;;;;;;15.79;84.54;99758.17;106078;1257;102611;-83
2023/08/08 00:16:45;;;;;;;8.90;3.00;;;;;;;15.75;84.63;99758.64;105897;1257;99268;-84
2023/08/08 00:19:31;;;;;;;7.00;2.50;;;;;;;15.73;84.55;99760.20;105955;1260;98953;-84
2023/08/08 00:22:16;;;;;;;7.70;2.10;;;;;;;15.69;84.36;99765.31;105682;1262;98019;-82
2023/08/08 00:25:03;;;;;;;5.50;2.00;;;;;;;15.65;84.27;99769.35;105787;1259;98416;-83
2023/08/08 00:27:50;;;;;;;5.30;2.00;;;;;;;15.62;84.09;99770.99;105786;1260;101322;-84
2023/08/08 00:30:36;;;;;;;5.70;1.80;;;;;;;15.57;84.52;99776.73;105639;1262;99181;-83
2023/08/08 00:33:22;;;;;;;6.40;2.10;;;;;;;15.53;84.51;99776.65;105677;1265;97964;-85
2023/08/08 00:36:08;;;;;;;4.70;1.80;;;;;;;15.50;84.81;99779.92;105733;1264;97953;-85
2023/08/08 00:38:54;;;;;;;11.00;2.20;;;;;;;15.48;84.92;99783.17;106058;1258;98616;-84
2023/08/08 00:41:39;;;;;;;6.80;2.60;;;;;;;15.46;85.07;99785.13;105752;1258;101429;-85
2023/08/08 00:44:24;;;;;;;3.60;1.80;;;;;;;15.42;85.31;99793.99;105811;1261;99196;-84
2023/08/08 00:47:11;;;;;;;4.80;2.00;;;;;;;15.40;85.49;99792.48;105775;1267;98103;-83
2023/08/08 00:49:56;;;;;;;7.80;2.10;;;;;;;15.39;85.48;99794.46;105586;1264;98067;-83
2023/08/08 00:52:43;;;;;;;7.20;2.40;;;;;;;15.35;85.28;99797.56;105763;1258;98252;-83
2023/08/08 00:55:29;;;;;;;3.60;1.90;;;;;;;15.31;85.42;99796.83;106396;1260;101419;-84
2023/08/08 00:58:16;;;;;;;5.00;2.20;;;;;;;15.28;85.60;99797.79;105670;1264;99107;-83
2023/08/08 01:01:01;;;;;;;4.90;2.20;;;;;;;15.27;85.71;99799.26;105675;1259;98428;-83
2023/08/08 01:03:47;;;;;;;7.10;2.30;;;;;;;15.24;85.72;99802.23;105724;1258;98081;-84
2023/08/08 01:07:07;;;;;;;7.90;2.20;;;;;;;15.21;85.40;99804.44;105993;1260;98961;-83
2023/08/08 01:09:57;;;;;;;8.80;2.20;;;;;;;15.17;85.62;99806.13;106024;1257;101444;-83
2023/08/08 01:12:51;;;;;;;5.60;2.40;;;;;;;15.15;85.49;99802.19;105990;1257;100046;-82
2023/08/08 01:15:37;;;;;;;5.60;2.00;;;;;;;15.13;85.33;99803.27;105629;1264;99181;-84
2023/08/08 01:18:25;;;;;;;6.60;2.30;;;;;;;15.11;85.38;99806.86;105883;1261;97960;-84
2023/08/08 01:21:10;;;;;;;5.10;2.30;;;;;;;15.11;85.32;99814.08;105801;1259;97859;-84
2023/08/08 01:24:13;;;;;;;6.50;1.90;;;;;;;15.10;85.32;99821.33;105923;1263;102713;-84
2023/08/08 01:27:00;;;;;;;6.50;2.30;;;;;;;15.07;85.25;99825.20;107358;1260;100130;-83
2023/08/08 01:29:46;;;;;;;5.70;2.00;;;;;;;15.05;85.19;99820.30;105669;1257;99031;-84
2023/08/08 01:32:33;;;;;;;6.30;2.10;;;;;;;15.01;85.30;99822.30;105938;1262;98054;-83
2023/08/08 01:35:20;;;;;;;7.10;2.20;;;;;;;14.98;85.59;99826.27;105728;1265;97993;-85
2023/08/08 01:38:23;;;;;;;4.70;1.80;;;;;;;14.95;85.58;99829.06;105682;1264;102649;-83
2023/08/08 01:41:09;;;;;;;8.00;2.20;;;;;;;14.91;85.58;99832.03;105889;1257;99251;-83
2023/08/08 01:43:54;;;;;;;6.00;2.20;;;;;;;14.88;85.95;99835.80;106058;1260;98672;-84
2023/08/08 01:46:40;;;;;;;7.80;2.10;;;;;;;14.86;85.68;99835.76;105761;1260;98038;-83
2023/08/08 01:49:25;;;;;;;4.50;2.00;;;;;;;14.86;85.69;99839.46;106072;1257;98110;-84
2023/08/08 01:52:11;;;;;;;7.90;2.20;;;;;;;14.84;85.49;99842.80;105811;1258;101454;-83
2023/08/08 01:54:57;;;;;;;4.80;2.20;;;;;;;14.81;85.18;99848.29;106177;1257;100470;-84
2023/08/08 01:57:43;;;;;;;5.00;1.90;;;;;;;14.78;84.80;99853.18;105915;1258;98548;-85
2023/08/08 02:00:29;;;;;;;4.80;2.00;;;;;;;14.76;84.81;99852.48;105695;1257;98007;-83
2023/08/08 02:03:14;;;;;;;5.90;2.10;;;;;;;14.74;84.81;99857.58;105811;1266;98411;-83
2023/08/08 02:06:00;;;;;;;7.20;2.60;;;;;;;14.71;84.69;99857.16;105835;1263;102013;-82
2023/08/08 02:08:46;;;;;;;6.20;2.40;;;;;;;14.67;84.75;99856.68;105881;1259;99240;-84
2023/08/08 02:11:31;;;;;;;4.10;2.00;;;;;;;14.63;84.69;99862.96;105897;1260;98069;-83
2023/08/08 02:14:17;;;;;;;7.40;2.00;;;;;;;14.61;84.42;99868.55;105839;1257;97867;-84
2023/08/08 02:17:03;;;;;;;5.90;2.30;;;;;;;14.59;84.26;99872.12;105998;1260;98005;-83
2023/08/08 02:19:50;;;;;;;5.30;2.10;;;;;;;14.56;84.33;99876.17;105867;1257;101491;-85
2023/08/08 02:22:36;;;;;;;5.90;1.90;;;;;;;14.52;84.22;99883.84;106122;1257;99088;-83
2023/08/08 02:25:22;;;;;;;10.20;1.80;;;;;;;14.50;84.28;99888.95;105768;1257;99006;-83
2023/08/08 02:28:07;;;;;;;6.20;2.10;;;;;;;14.48;84.19;99887.23;105812;1263;97935;-84
2023/08/08 02:30:53;;;;;;;5.00;1.90;;;;;;;14.47;84.13;99887.20;106136;1260;97765;-84
2023/08/08 02:33:39;;;;;;;5.40;2.20;;;;;;;14.45;83.73;99888.34;106054;1258;101452;-84
2023/08/08 02:36:24;;;;;;;8.80;2.10;;;;;;;14.43;83.64;99886.23;105915;1257;108611;-83
2023/08/08 02:39:10;;;;;;;5.30;2.10;;;;;;;14.39;83.63;99895.94;105880;1262;98963;-84
2023/08/08 02:41:56;;;;;;;8.70;2.10;;;;;;;14.34;83.56;99901.45;105839;1258;99253;-83
2023/08/08 02:44:43;;;;;;;6.20;2.30;;;;;;;14.30;83.54;99901.48;106007;1258;99138;-83
2023/08/08 02:47:29;;;;;;;7.20;2.00;;;;;;;14.27;83.61;99905.54;105812;1260;102117;-83
2023/08/08 02:50:14;;;;;;;4.30;1.70;;;;;;;14.27;83.55;99910.92;105870;1262;100431;-83
2023/08/08 02:53:00;;;;;;;4.50;1.70;;;;;;;14.26;83.64;99914.30;105792;1257;99112;-83
2023/08/08 02:55:50;;;;;;;6.80;1.90;;;;;;;14.25;83.71;99917.12;106203;1257;98049;-83
2023/08/08 02:58:36;;;;;;;5.50;2.10;;;;;;;14.22;83.67;99916.54;105910;1259;98396;-84
2023/08/08 03:01:23;;;;;;;7.00;1.80;;;;;;;14.20;83.61;99919.13;105939;1262;102081;-83
2023/08/08 03:04:10;;;;;;;3.50;2.50;;;;;;;14.18;83.48;99920.15;105817;1258;99253;-83
2023/08/08 03:06:56;;;;;;;7.70;2.00;;;;;;;14.13;83.56;99914.95;105761;1263;106898;-83
2023/08/08 03:09:42;;;;;;;4.80;2.10;;;;;;;14.11;83.83;99920.54;105835;1257;97963;-83
2023/08/08 03:12:29;;;;;;;3.20;1.90;;;;;;;14.07;83.77;99919.30;106054;1259;97883;-84
2023/08/08 03:15:15;;;;;;;4.50;1.70;;;;;;;14.03;83.85;99926.14;106011;1256;102655;-84
2023/08/08 03:18:02;;;;;;;4.70;1.90;;;;;;;14.03;83.95;99933.61;106012;1262;99353;-83
2023/08/08 03:20:47;;;;;;;3.90;1.80;;;;;;;14.01;84.11;99942.02;106111;1257;98193;-84
2023/08/08 03:23:33;;;;;;;6.40;2.00;;;;;;;14.00;84.16;99942.05;105767;1256;97961;-83
2023/08/08 03:26:19;;;;;;;6.50;2.30;;;;;;;13.99;84.28;99941.35;105825;1256;98504;-83
2023/08/08 03:29:09;;;;;;;5.10;2.20;;;;;;;14.00;84.59;99950.13;105804;1259;101430;-84
2023/08/08 03:31:58;;;;;;;6.40;2.20;;;;;;;14.01;84.65;99954.41;105811;1259;99121;-84
2023/08/08 03:34:45;;;;;;;8.20;2.10;;;;;;;14.02;84.24;99957.80;105846;1257;98042;-84
2023/08/08 03:37:31;;;;;;;5.10;2.10;;;;;;;14.02;84.43;99960.24;105861;1262;97986;-84
2023/08/08 03:40:18;;;;;;;5.20;1.80;;;;;;;14.03;84.47;99965.11;105855;1258;98394;-83
2023/08/08 03:43:04;;;;;;;7.70;2.10;;;;;;;14.04;84.62;99967.55;105979;1259;103196;-84
2023/08/08 03:45:49;;;;;;;6.90;2.20;;;;;;;14.04;84.47;99967.56;105903;1264;100455;-83
2023/08/08 03:48:36;;;;;;;6.10;1.80;;;;;;;14.04;84.57;99969.88;105950;1260;98794;-84
2023/08/08 03:51:21;;;;;;;3.40;1.70;;;;;;;14.04;84.38;99971.86;105794;1263;97966;-84
2023/08/08 03:54:08;;;;;;;6.40;2.50;;;;;;;14.03;84.61;99971.16;105791;1262;98041;-84
2023/08/08 03:56:54;;;;;;;6.80;2.10;;;;;;;14.04;84.46;99976.67;106074;1258;102155;-85
2023/08/08 03:59:40;;;;;;;8.40;2.10;;;;;;;14.06;84.53;99981.00;106179;1259;99331;-84
2023/08/08 04:02:25;;;;;;;8.40;2.50;;;;;;;14.09;84.67;99985.45;105731;1273;98058;-83
2023/08/08 04:05:12;;;;;;;8.10;2.20;;;;;;;14.12;84.44;99984.20;105696;1259;97993;-85
2023/08/08 04:07:57;;;;;;;4.60;1.90;;;;;;;14.14;84.35;99986.50;106100;1257;98480;-84
2023/08/08 04:10:47;;;;;;;7.30;2.10;;;;;;;14.15;84.44;99991.05;105675;1259;102723;-83
2023/08/08 04:13:32;;;;;;;5.00;2.50;;;;;;;14.16;84.34;99992.61;105740;1260;99155;-84
2023/08/08 04:16:18;;;;;;;5.30;2.10;;;;;;;14.19;84.54;99995.60;106027;1257;98490;-84
2023/08/08 04:19:04;;;;;;;6.30;2.00;;;;;;;14.22;84.27;99995.86;105807;1265;98042;-84
2023/08/08 04:21:50;;;;;;;5.00;1.90;;;;;;;14.23;84.37;100004.62;105788;1257;98450;-84
2023/08/08 04:24:36;;;;;;;5.40;1.80;;;;;;;14.27;84.36;100006.16;105821;1262;102544;-84
2023/08/08 04:27:22;;;;;;;9.70;2.10;;;;;;;14.30;84.49;100011.13;105790;1258;100557;-83
2023/08/08 04:30:08;;;;;;;5.60;1.90;;;;;;;14.34;84.49;100016.34;106039;1259;99214;-83
2023/08/08 04:32:53;;;;;;;7.60;2.20;;;;;;;14.40;84.33;100016.35;106093;1262;97772;-84
2023/08/08 04:35:39;;;;;;;7.10;2.40;;;;;;;14.49;84.37;100027.45;105845;1257;98047;-84
2023/08/08 04:38:25;;;;;;;5.00;2.20;;;;;;;14.57;84.32;100026.05;105864;1259;101447;-84
2023/08/08 04:41:11;;;;;;;3.80;1.80;;;;;;;14.63;84.25;100024.04;106032;1260;99210;-84
2023/08/08 04:43:56;;;;;;;5.10;1.90;;;;;;;14.67;83.71;100029.53;105793;1257;98752;-84
2023/08/08 04:46:42;;;;;;;5.50;2.10;;;;;;;14.69;83.61;100029.38;105988;1258;97874;-85
2023/08/08 04:49:28;;;;;;;8.00;2.20;;;;;;;14.73;83.64;100031.25;105943;1256;97968;-84
2023/08/08 04:52:14;;;;;;;6.00;2.30;;;;;;;14.76;83.45;100031.65;106129;1259;101379;-84
2023/08/08 04:55:00;;;;;;;7.80;2.30;;;;;;;14.80;82.97;100041.31;105800;1262;99710;-85
2023/08/08 04:57:46;;;;;;;5.00;2.10;;;;;;;14.85;83.09;100043.30;106101;1264;98447;-83
2023/08/08 05:00:31;;;;;;;6.70;2.80;;;;;;;14.89;82.96;100042.48;105754;1257;97934;-84
2023/08/08 05:03:17;;;;;;;3.70;1.90;;;;;;;14.94;83.14;100046.85;105976;1257;98399;-84
2023/08/08 05:06:03;;;;;;;5.40;1.90;;;;;;;15.02;83.07;100049.53;105789;1257;103278;-83
2023/08/08 05:08:52;;;;;;;5.30;2.00;;;;;;;15.05;82.74;100056.70;105788;1263;99116;-83
2023/08/08 05:11:38;;;;;;;5.00;1.80;;;;;;;15.06;82.54;100055.23;105789;1265;99079;-82
2023/08/08 05:14:24;;;;;;;9.20;2.20;;;;;;;15.07;82.34;100060.41;105830;1259;99148;-82
2023/08/08 05:17:09;;;;;;;5.40;2.10;;;;;;;15.07;82.14;100063.59;105858;1260;98506;-82
2023/08/08 05:19:55;;;;;;;5.50;2.30;;;;;;;15.08;82.18;100064.04;106000;1262;101381;-82
2023/08/08 05:22:41;;;;;;;6.70;2.20;;;;;;;15.11;82.22;100061.77;105863;1259;99272;-83
2023/08/08 05:25:26;;;;;;;5.60;1.60;;;;;;;15.12;81.90;100069.23;105892;1257;98016;-83
2023/08/08 05:28:12;;;;;;;3.80;1.80;;;;;;;15.13;81.84;100069.58;105690;1264;97951;-82
2023/08/08 05:30:59;;;;;;;6.30;1.90;;;;;;;15.17;82.13;100075.62;106026;1260;97926;-83
2023/08/08 05:33:44;;;;;;;8.30;1.90;;;;;;;15.24;82.51;100076.07;106031;1263;111221;-83
2023/08/08 05:36:30;;;;;;;3.70;1.80;;;;;;;15.28;81.96;100080.19;106057;1258;100338;-82
2023/08/08 05:39:15;;;;;;;5.30;2.10;;;;;;;15.32;81.78;100084.50;105717;1257;98851;-82
2023/08/08 05:42:00;;;;;;;7.10;2.40;;;;;;;15.35;81.49;100081.66;105868;1262;97874;-83
2023/08/08 05:44:46;;;;;;;4.00;2.00;;;;;;;15.37;81.13;100085.29;105838;1257;98485;-82
2023/08/08 05:47:32;;;;;;;5.60;2.50;;;;;;;15.41;81.18;100084.57;106004;1263;101378;-83
2023/08/08 05:50:17;;;;;;;2.70;1.50;;;;;;;15.46;80.93;100090.72;106154;1256;99081;-81
2023/08/08 05:53:03;;;;;;;2.70;1.80;;;;;;;15.49;80.62;100091.55;105945;1258;99022;-83
2023/08/08 05:55:49;;;;;;;8.60;2.10;;;;;;;15.50;80.11;100092.11;105962;1259;97936;-82
2023/08/08 05:58:37;;;;;;;6.70;2.00;;;;;;;15.52;80.27;100098.10;106034;1259;98022;-82
2023/08/08 06:01:23;;;;;;;6.60;2.50;;;;;;;15.54;80.22;100099.30;105811;1259;102712;-82
2023/08/08 06:04:09;;;;;;;6.10;2.10;;;;;;;15.56;79.93;100106.05;105997;1256;99988;-82
2023/08/08 06:06:54;;;;;;;5.60;1.90;;;;;;;15.59;79.87;100112.65;105927;1259;99555;-82
2023/08/08 06:09:40;;;;;;;4.80;2.20;;;;;;;15.60;79.49;100112.35;106019;1256;97895;-82
2023/08/08 06:12:26;;;;;;;3.90;2.10;;;;;;;15.59;79.24;100114.65;106118;1260;98582;-82
2023/08/08 06:15:11;;;;;;;5.20;2.10;;;;;;;15.59;79.25;100118.42;105790;1262;101427;-82
2023/08/08 06:17:57;;;;;;;5.80;2.40;;;;;;;15.61;78.94;100118.64;105819;1257;100769;-83
2023/08/08 06:20:43;;;;;;;6.30;2.30;;;;;;;15.64;79.25;100119.55;105818;1264;98152;-82
2023/08/08 06:23:28;;;;;;;5.20;2.10;;;;;;;15.67;79.11;100121.79;106228;1262;97964;-83
2023/08/08 06:26:14;;;;;;;8.60;2.70;;;;;;;15.72;78.90;100123.41;105719;1257;98390;-82
2023/08/08 06:28:59;;;;;;;6.70;2.40;;;;;;;15.76;78.37;100125.63;105886;1262;101456;-81
2023/08/08 06:31:45;;;;;;;14.10;3.00;;;;;;;15.78;78.42;100130.16;105981;1257;99150;-83
2023/08/08 06:34:30;;;;;;;7.90;2.40;;;;;;;15.82;78.61;100126.45;105991;1264;97951;-84
2023/08/08 06:37:15;;;;;;;8.20;1.80;;;;;;;15.86;78.36;100126.05;105888;1263;97976;-83
2023/08/08 06:40:01;;;;;;;5.90;2.40;;;;;;;15.89;78.16;100133.98;105999;1262;97555;-83
2023/08/08 06:42:48;;;;;;;6.20;2.20;;;;;;;15.92;78.21;100131.48;105952;1262;101451;-85
2023/08/08 06:45:33;;;;;;;11.10;2.00;;;;;;;15.97;78.06;100129.94;105893;1262;99066;-83
2023/08/08 06:48:19;;;;;;;5.10;2.10;;;;;;;16.00;77.75;100127.24;106067;1262;98802;-82
2023/08/08 06:51:05;;;;;;;4.70;1.70;;;;;;;16.03;77.86;100128.68;105950;1257;97949;-81
2023/08/08 06:53:52;;;;;;;11.40;2.40;;;;;;;16.08;77.95;100136.16;106141;1264;98425;-84
2023/08/08 06:56:37;;;;;;;5.20;1.90;;;;;;;16.10;77.37;100137.82;106440;1257;111153;-85
2023/08/08 06:59:24;;;;;;;5.10;1.70;;;;;;;16.10;77.06;100141.17;105862;1264;99166;-85
2023/08/08 07:02:09;;;;;;;5.40;2.00;;;;;;;16.10;77.08;100138.80;105902;1257;106754;-83
2023/08/08 07:04:55;;;;;;;4.80;1.80;;;;;;;16.07;76.51;100135.59;105841;1259;97916;-82
2023/08/08 07:07:44;;;;;;;5.70;1.80;;;;;;;16.06;76.26;100138.59;105996;1256;98397;-83
2023/08/08 07:10:30;;;;;;;3.80;2.00;;;;;;;16.07;76.21;100143.75;107893;1257;102684;-83
2023/08/08 07:13:15;;;;;;;3.90;1.80;;;;;;;16.10;76.53;100149.17;106192;1261;109082;-84
2023/08/08 07:16:01;;;;;;;4.10;2.20;;;;;;;16.16;76.73;100151.41;105890;1262;99055;-84
2023/08/08 07:18:46;;;;;;;10.50;2.00;;;;;;;16.18;75.97;100147.79;105898;1256;98790;-84
2023/08/08 07:21:31;;;;;;;9.80;2.20;;;;;;;16.18;75.72;100150.45;105937;1263;97961;-84
2023/08/08 07:24:18;;;;;;;7.50;1.90;;;;;;;16.20;75.67;100148.27;106075;1260;101487;-84
2023/08/08 07:27:04;;;;;;;4.50;2.10;;;;;;;16.20;75.37;100146.65;106009;1259;99273;-84
2023/08/08 07:29:50;;;;;;;8.20;2.10;;;;;;;16.25;75.31;100150.59;105897;1260;97971;-83
2023/08/08 07:32:35;;;;;;;6.90;2.60;;;;;;;16.32;75.77;100156.84;105761;1259;98035;-83
2023/08/08 07:35:21;;;;;;;8.40;2.50;;;;;;;16.39;75.34;100157.86;105822;1259;97766;-84
2023/08/08 07:38:07;;;;;;;6.40;1.60;;;;;;;16.45;75.09;100157.72;106191;1258;102751;-84
2023/08/08 07:40:52;;;;;;;7.80;1.90;;;;;;;16.51;74.33;100154.98;105812;1260;99762;-84
2023/08/08 07:43:37;;;;;;;5.10;1.60;;;;;;;16.57;74.43;100154.79;106302;1256;98338;-83
2023/08/08 07:46:23;;;;;;;5.70;1.80;;;;;;;16.61;74.41;100151.58;105866;1263;98066;-85
2023/08/08 07:49:09;;;;;;;7.60;2.30;;;;;;;16.66;74.52;100156.27;105884;1262;97912;-84
2023/08/08 07:51:55;;;;;;;4.30;2.00;;;;;;;16.74;74.72;100155.59;105882;1261;101804;-84
2023/08/08 07:54:40;;;;;;;5.10;2.10;;;;;;;16.83;74.96;100151.04;105915;1257;100406;-84
2023/08/08 07:57:27;;;;;;;6.40;1.80;;;;;;;16.89;74.38;100151.66;105842;1259;98053;-84
2023/08/08 08:00:13;;;;;;;4.60;1.90;;;;;;;16.93;73.99;100157.04;105841;1256;98025;-85
2023/08/08 08:02:59;;;;;;;6.60;1.90;;;;;;;16.97;73.75;100153.50;105842;1259;97933;-84
2023/08/08 08:05:44;;;;;;;5.30;1.90;;;;;;;17.05;73.81;100154.48;105841;1258;102608;-83
2023/08/08 08:08:30;;;;;;;3.90;1.70;;;;;;;17.11;73.41;100154.01;105791;1257;100446;-84
2023/08/08 08:11:16;;;;;;;4.80;1.90;;;;;;;17.16;73.68;100149.87;105787;1259;98906;-83
2023/08/08 08:14:02;;;;;;;4.70;2.30;;;;;;;17.22;73.71;100149.95;105848;1259;97946;-84
2023/08/08 08:16:48;;;;;;;8.40;1.90;;;;;;;17.31;73.70;100151.38;106064;1260;97807;-84
2023/08/08 08:19:34;;;;;;;6.70;2.20;;;;;;;17.43;73.68;100146.85;105825;1262;102168;-84
2023/08/08 08:22:20;;;;;;;4.00;1.90;;;;;;;17.52;72.68;100147.52;105784;1260;99215;-87
2023/08/08 08:25:08;;;;;;;3.60;1.50;;;;;;;17.54;71.98;100150.77;105786;1259;99148;-84
2023/08/08 08:27:54;;;;;;;8.20;2.00;;;;;;;17.54;71.07;100150.52;105577;1264;98039;-84
2023/08/08 08:30:39;;;;;;;3.40;1.60;;;;;;;17.53;70.95;100149.63;105711;1265;98496;-84
2023/08/08 08:33:25;;;;;;;3.70;1.60;;;;;;;17.57;71.19;100147.95;105847;1257;102141;-83
2023/08/08 08:36:10;;;;;;;8.90;2.00;;;;;;;17.66;71.44;100143.28;105770;1256;99312;-84
2023/08/08 08:38:57;;;;;;;5.70;2.10;;;;;;;17.78;71.76;100145.30;106017;1259;98723;-84
2023/08/08 08:41:48;;;;;;;5.40;2.00;;;;;;;17.87;70.54;100144.74;105940;1262;97976;-84
2023/08/08 08:44:35;;;;;;;8.20;2.70;;;;;;;17.95;70.07;100136.98;105919;1262;98441;-84
2023/08/08 08:47:24;;;;;;;6.70;1.70;;;;;;;18.08;69.95;100133.34;106100;1259;102859;-84
2023/08/08 08:50:10;;;;;;;6.40;1.70;;;;;;;18.07;68.58;100139.66;105684;1262;99246;-85
2023/08/08 08:52:55;;;;;;;9.00;1.60;;;;;;;17.98;68.09;100144.18;106201;1256;97864;-84
2023/08/08 08:55:41;;;;;;;5.30;1.70;;;;;;;17.98;68.85;100146.02;105756;1264;98060;-84
2023/08/08 08:58:27;;;;;;;4.60;1.70;;;;;;;17.98;68.75;100147.06;105733;1262;98055;-84
2023/08/08 09:01:15;;;;;;;5.10;1.60;;;;;;;18.04;68.84;100150.50;105877;1262;101432;-84
2023/08/08 09:04:02;;;;;;;7.40;1.90;;;;;;;18.13;68.65;100148.34;106086;1259;100408;-84
2023/08/08 09:06:51;;;;;;;2.40;1.40;;;;;;;18.31;69.05;100146.66;105796;1258;98800;-84
2023/08/08 09:09:37;;;;;;;5.70;1.70;;;;;;;18.51;68.90;100153.17;105780;1258;99276;-84
2023/08/08 09:12:24;;;;;;;4.00;1.50;;;;;;;18.66;67.08;100151.45;105701;1259;98394;-84
2023/08/08 09:15:11;;;;;;;3.90;1.00;;;;;;;18.78;66.91;100150.25;105836;1260;102193;-84
2023/08/08 09:17:56;;;;;;;4.60;1.20;;;;;;;18.94;65.75;100149.98;105954;1264;100420;-84
2023/08/08 09:20:48;;;;;;;3.00;1.00;;;;;;;19.04;64.39;100157.16;106049;1259;98991;-84
2023/08/08 09:23:33;;;;;;;3.40;1.00;;;;;;;19.12;63.07;100159.59;106053;1258;98075;-85
2023/08/08 09:26:19;;;;;;;4.30;1.10;;;;;;;19.13;62.59;100165.90;106050;1256;97973;-83
2023/08/08 09:29:06;;;;;;;2.90;1.30;;;;;;;19.09;61.64;100161.30;106072;1262;101443;-84
2023/08/08 09:31:52;;;;;;;2.10;1.10;;;;;;;19.18;61.62;100162.70;105733;1259;100966;-84
2023/08/08 09:34:37;;;;;;;2.10;0.90;;;;;;;19.32;61.66;100169.25;105807;1262;98681;-83
2023/08/08 09:37:23;;;;;;;3.50;1.10;;;;;;;19.45;61.26;100164.89;105874;1259;97985;-84
2023/08/08 09:40:11;;;;;;;1.70;1.30;;;;;;;19.56;60.86;100168.89;105959;1260;98462;-83
2023/08/08 09:42:57;;;;;;;3.60;1.60;;;;;;;19.65;60.87;100166.63;105811;1257;102689;-84
2023/08/08 09:45:42;;;;;;;4.20;1.20;;;;;;;19.75;60.95;100169.45;105972;1264;99756;-83
2023/08/08 09:48:31;;;;;;;2.10;0.90;;;;;;;19.85;60.22;100170.43;105932;1258;98056;-84
2023/08/08 09:51:17;;;;;;;5.20;1.20;;;;;;;19.89;59.04;100159.15;106700;1259;97965;-83
2023/08/08 09:54:04;;;;;;;3.70;1.30;;;;;;;19.94;58.63;100159.26;106028;1259;98063;-84
2023/08/08 09:56:51;;;;;;;7.80;1.30;;;;;;;19.90;57.93;100163.89;105828;1260;101350;-83
2023/08/08 09:59:37;;;;;;;1.70;0.80;;;;;;;19.82;57.89;100165.50;105938;1265;100435;-83
2023/08/08 10:02:23;;;;;;;3.50;1.20;;;;;;;19.80;58.43;100163.79;106082;1258;97727;-83
2023/08/08 10:05:10;;;;;;;1.70;1.20;;;;;;;19.75;57.79;100160.92;105804;1258;97944;-83
2023/08/08 10:07:56;;;;;;;3.00;1.20;;;;;;;19.67;57.45;100162.09;107582;1258;95837;-83
2023/08/08 10:10:45;;;;;;;3.90;1.20;;;;;;;19.63;57.52;100164.77;105849;1259;102058;-83
2023/08/08 10:13:31;;;;;;;2.60;0.80;;;;;;;19.59;56.82;100165.38;105762;1262;100375;-83
2023/08/08 10:16:18;;;;;;;1.30;0.90;;;;;;;19.54;57.03;100170.48;105789;1257;98813;-83
2023/08/08 10:19:05;;;;;;;2.30;0.80;;;;;;;19.60;57.04;100170.55;106265;1258;98115;-83
2023/08/08 10:21:58;;;;;;;2.10;0.90;;;;;;;19.64;56.37;100173.97;106010;1262;97942;-84
2023/08/08 10:24:48;;;;;;;5.90;0.90;;;;;;;19.60;55.33;100173.37;105809;1260;101460;-84
2023/08/08 10:27:35;;;;;;;4.00;1.00;;;;;;;19.51;55.58;100176.14;106072;1259;99167;-84
2023/08/08 10:30:21;;;;;;;2.60;1.10;;;;;;;19.41;55.21;100177.36;105812;1259;98525;-83
2023/08/08 10:33:06;;;;;;;4.20;0.80;;;;;;;19.33;55.46;100170.93;106107;1259;97887;-83
2023/08/08 10:36:02;;;;;;;3.80;1.00;;;;;;;19.31;55.53;100171.11;106021;1259;97986;-83
2023/08/08 10:38:54;;;;;;;4.70;0.90;;;;;;;19.27;55.22;100169.94;106276;1258;102706;-83
2023/08/08 10:41:50;;;;;;;2.70;0.80;;;;;;;19.31;55.37;100176.16;106059;1260;100434;-84
2023/08/08 10:44:42;;;;;;;2.70;0.90;;;;;;;19.38;55.67;100174.98;105895;1258;97874;-84
2023/08/08 10:47:34;;;;;;;2.20;1.10;;;;;;;19.43;55.07;100176.83;106086;1260;98051;-84
2023/08/08 10:50:23;;;;;;;4.10;1.10;;;;;;;19.50;54.77;100175.33;105828;1262;98550;-84
2023/08/08 10:53:10;;;;;;;5.80;0.80;;;;;;;19.58;54.81;100178.64;106050;1259;101870;-84
2023/08/08 10:56:01;;;;;;;1.90;0.70;;;;;;;19.62;54.30;100184.27;106035;1262;99148;-85
2023/08/08 10:58:48;;;;;;;3.60;0.90;;;;;;;19.65;53.59;100187.01;105752;1259;98835;-84
2023/08/08 11:01:36;;;;;;;0.90;0.50;;;;;;;19.64;53.53;100189.23;106040;1264;98062;-85
2023/08/08 11:04:25;;;;;;;2.20;0.90;;;;;;;19.59;53.42;100188.31;106158;1259;98468;-84
2023/08/08 11:07:14;;;;;;;1.70;0.90;;;;;;;19.50;53.36;100192.45;105831;1259;101540;-85
2023/08/08 11:10:00;;;;;;;0.90;0.70;;;;;;;19.55;54.11;100195.71;105892;1258;99284;-84
2023/08/08 11:12:59;;;;;;;1.10;0.70;;;;;;;19.65;53.61;100193.92;105789;1265;98041;-84
2023/08/08 11:15:44;;;;;;;3.10;0.90;;;;;;;19.71;53.90;100189.20;106038;1264;97899;-84
2023/08/08 11:18:30;;;;;;;2.70;1.20;;;;;;;19.71;53.41;100191.05;105809;1257;98496;-84
2023/08/08 11:21:16;;;;;;;1.90;0.50;;;;;;;19.65;52.73;100185.01;105864;1257;101417;-84
2023/08/08 11:24:04;;;;;;;1.00;0.60;;;;;;;19.56;52.81;100188.94;105966;1259;100025;-86
2023/08/08 11:26:51;;;;;;;2.50;0.90;;;;;;;19.48;52.66;100185.70;105920;1263;98452;-84
2023/08/08 11:29:37;;;;;;;2.60;0.70;;;;;;;19.46;53.58;100193.48;105805;1258;98686;-84
2023/08/08 11:32:26;;;;;;;1.10;0.60;;;;;;;19.52;53.95;100197.20;105917;1258;98092;-85
2023/08/08 11:35:11;;;;;;;2.60;0.80;;;;;;;19.71;53.07;100194.96;105983;1265;101596;-84
2023/08/08 11:38:00;;;;;;;2.70;0.80;;;;;;;19.94;52.96;100194.86;105988;1258;99202;-85
2023/08/08 11:40:45;;;;;;;2.80;0.60;;;;;;;20.10;52.11;100187.08;106099;1259;97965;-84
2023/08/08 11:43:31;;;;;;;3.40;0.90;;;;;;;20.21;51.99;100189.75;105819;1264;97962;-85
2023/08/08 11:46:17;;;;;;;1.40;0.70;;;;;;;20.36;52.05;100191.46;106202;1264;97959;-85
2023/08/08 11:49:06;;;;;;;1.80;0.90;;;;;;;20.53;52.13;100186.62;105969;1262;101375;-87
2023/08/08 11:51:59;;;;;;;2.60;0.70;;;;;;;20.68;51.91;100189.84;105989;1261;99096;-84
2023/08/08 11:54:52;;;;;;;2.30;0.80;;;;;;;20.71;50.64;100185.61;106099;1268;98837;-84
2023/08/08 11:57:40;;;;;;;1.60;0.90;;;;;;;20.60;50.21;100188.74;106011;1259;97981;-84
2023/08/08 12:00:30;;;;;;;4.60;1.10;;;;;;;20.50;50.10;100189.61;106056;1257;97979;-85
2023/08/08 12:03:18;;;;;;;1.70;0.80;;;;;;;20.43;50.22;100194.66;105928;1259;101342;-84
2023/08/08 12:06:14;;;;;;;2.10;0.80;;;;;;;20.36;50.20;100195.42;105945;1259;100044;-85
2023/08/08 12:09:01;;;;;;;3.20;0.90;;;;;;;20.31;50.77;100200.67;106394;1259;99131;-85
2023/08/08 12:11:47;;;;;;;1.40;0.80;;;;;;;20.32;50.97;100199.54;106131;1260;98061;-84
2023/08/08 12:14:42;;;;;;;4.20;0.80;;;;;;;20.35;51.56;100202.88;105988;1260;97880;-84
2023/08/08 12:17:27;;;;;;;1.50;0.90;;;;;;;20.31;51.23;100207.58;105908;1259;101246;-84
2023/08/08 12:20:15;;;;;;;2.00;0.90;;;;;;;20.25;51.43;100207.48;106059;1262;99135;-85
2023/08/08 12:23:00;;;;;;;2.50;1.10;;;;;;;20.21;51.31;100212.05;105890;1259;97992;-84
2023/08/08 12:25:47;;;;;;;2.80;1.20;;;;;;;20.11;50.56;100215.67;106199;1262;97994;-83
2023/08/08 12:28:33;;;;;;;1.50;0.80;;;;;;;20.02;50.46;100222.52;106025;1260;98456;-85
2023/08/08 12:31:18;;;;;;;2.30;0.70;;;;;;;19.91;50.62;100219.42;106215;1260;102683;-84
2023/08/08 12:34:04;;;;;;;1.80;1.20;;;;;;;19.90;51.28;100219.78;106102;1264;100564;-84
2023/08/08 12:36:49;;;;;;;3.80;0.80;;;;;;;19.94;51.59;100215.27;105814;1265;99028;-84
2023/08/08 12:39:35;;;;;;;4.90;0.90;;;;;;;20.00;51.56;100221.14;105714;1265;97906;-84
2023/08/08 12:42:21;;;;;;;1.80;1.40;;;;;;;20.02;50.88;100226.21;106186;1259;98508;-84
2023/08/08 12:45:07;;;;;;;2.00;0.70;;;;;;;19.99;50.71;100230.15;105986;1260;101581;-84
2023/08/08 12:47:53;;;;;;;2.00;0.80;;;;;;;19.99;50.80;100234.61;105698;1265;99173;-84